createdAt,value
2023-04-12T00:00:14.154Z,38.73
2023-04-12T00:02:45.013Z,38.10
2023-04-12T00:05:14.174Z,42.17
2023-04-12T00:07:46.983Z,41.90
2023-04-12T00:10:15.711Z,40.70
2023-04-12T00:12:44.154Z,43.43
2023-04-12T00:15:12.963Z,46.70
2023-04-12T00:17:41.571Z,52.72
2023-04-12T00:20:12.955Z,56.50
2023-04-12T00:22:42.750Z,55.53
2023-04-12T00:25:11.892Z,57.30
2023-04-12T00:27:40.873Z,63.83
2023-04-12T00:30:10.199Z,61.07
2023-04-12T00:32:38.825Z,61.80
2023-04-12T00:35:08.289Z,65.13
2023-04-12T00:37:38.771Z,71.27
2023-04-12T00:40:10.368Z,69.37
2023-04-12T00:42:39.182Z,76.57
2023-04-12T00:45:09.409Z,76.03
2023-04-12T00:47:38.737Z,79.27
2023-04-12T00:50:08.585Z,77.70
2023-04-12T00:52:40.088Z,81.27
2023-04-12T00:55:10.590Z,84.53
2023-04-12T00:57:40.617Z,80.80
2023-04-12T01:00:11.889Z,83.77
2023-04-12T01:02:42.832Z,82.60
2023-04-12T01:05:14.939Z,89.60
2023-04-12T01:07:54.457Z,88.10
2023-04-12T01:10:34.331Z,87.00
2023-04-12T01:13:12.747Z,86.40
2023-04-12T01:15:58.366Z,88.80
2023-04-12T01:18:29.926Z,88.33
2023-04-12T01:21:05.417Z,89.37
2023-04-12T01:23:53.172Z,88.53
2023-04-12T01:26:37.214Z,89.33
2023-04-12T01:29:12.014Z,88.90
2023-04-12T01:31:42.918Z,88.70
2023-04-12T01:34:13.474Z,90.30
2023-04-12T01:36:45.259Z,89.30
2023-04-12T01:39:14.057Z,89.03
2023-04-12T01:41:45.389Z,91.73
2023-04-12T01:44:18.755Z,85.90
2023-04-12T01:46:48.267Z,87.07
2023-04-12T01:49:17.918Z,86.77
2023-04-12T01:51:53.901Z,88.13
2023-04-12T01:54:25.732Z,86.27
2023-04-12T01:56:59.099Z,87.70
2023-04-12T01:59:33.667Z,89.73
2023-04-12T02:02:03.788Z,91.03
2023-04-12T02:04:33.513Z,89.53
2023-04-12T02:07:02.194Z,88.63
2023-04-12T02:09:30.791Z,88.67
2023-04-12T02:11:59.316Z,90.53
2023-04-12T02:14:31.588Z,89.10
2023-04-12T02:17:02.488Z,90.23
2023-04-12T02:19:31.477Z,92.40
2023-04-12T02:21:59.915Z,90.10
2023-04-12T02:24:28.598Z,89.10
2023-04-12T02:26:57.038Z,89.23
2023-04-12T02:29:25.959Z,89.47
2023-04-12T02:31:55.839Z,89.07
2023-04-12T02:34:24.287Z,88.70
2023-04-12T02:36:52.839Z,87.47
2023-04-12T02:39:22.327Z,86.60
2023-04-12T02:41:51.164Z,89.80
2023-04-12T02:44:19.604Z,90.33
2023-04-12T02:46:47.929Z,88.40
2023-04-12T02:49:17.564Z,89.13
2023-04-12T02:51:46.375Z,86.97
2023-04-12T02:54:15.043Z,87.70
2023-04-12T02:56:43.994Z,87.73
2023-04-12T02:59:12.524Z,89.10
2023-04-12T03:01:40.924Z,92.20
2023-04-12T03:04:09.496Z,89.97
2023-04-12T03:06:40.370Z,87.53
2023-04-12T03:09:08.930Z,86.67
2023-04-12T03:11:37.384Z,86.17
2023-04-12T03:14:05.934Z,90.63
2023-04-12T03:16:35.707Z,88.33
2023-04-12T03:19:04.372Z,90.73
2023-04-12T03:21:33.297Z,90.93
2023-04-12T03:24:04.390Z,94.77
2023-04-12T03:26:33.179Z,93.13
2023-04-12T03:29:05.154Z,93.80
2023-04-12T03:31:33.810Z,94.37
2023-04-12T03:34:02.456Z,96.13
2023-04-12T03:36:31.617Z,95.83
2023-04-12T03:39:00.080Z,95.27
2023-04-12T03:41:30.184Z,99.37
2023-04-12T03:43:58.993Z,97.27
2023-04-12T03:46:27.874Z,99.80
2023-04-12T03:48:56.947Z,102.20
2023-04-12T03:51:27.076Z,98.67
2023-04-12T03:53:55.775Z,101.73
2023-04-12T03:56:24.439Z,102.50
2023-04-12T03:58:54.555Z,101.77
2023-04-12T04:01:23.841Z,98.07
2023-04-12T04:03:52.619Z,103.33
2023-04-12T04:06:21.790Z,100.93
2023-04-12T04:08:50.229Z,102.03
2023-04-12T04:11:18.914Z,98.77
2023-04-12T04:13:47.714Z,94.67
2023-04-12T04:16:18.248Z,93.57
2023-04-12T04:18:46.760Z,95.30
2023-04-12T04:21:15.552Z,91.83
2023-04-12T04:23:47.995Z,91.10
2023-04-12T04:26:17.058Z,91.37
2023-04-12T04:28:46.396Z,92.33
2023-04-12T04:31:17.742Z,88.87
2023-04-12T04:33:47.731Z,92.90
2023-04-12T04:36:16.766Z,92.10
2023-04-12T04:38:46.181Z,95.13
2023-04-12T04:41:14.612Z,98.97
2023-04-12T04:43:43.052Z,98.67
2023-04-12T04:46:11.641Z,100.93
2023-04-12T04:48:41.011Z,103.87
2023-04-12T04:51:12.208Z,104.07
2023-04-12T04:53:40.911Z,109.93
2023-04-12T04:56:10.657Z,108.80
2023-04-12T04:58:39.332Z,110.33
2023-04-12T05:01:08.585Z,106.33
2023-04-12T05:03:37.911Z,116.63
2023-04-12T05:06:06.830Z,113.63
2023-04-12T05:08:36.690Z,113.00
2023-04-12T05:11:05.492Z,116.67
2023-04-12T05:13:34.100Z,115.73
2023-04-12T05:16:02.371Z,111.67
2023-04-12T05:18:30.815Z,111.00
2023-04-12T05:21:03.693Z,110.73
2023-04-12T05:23:34.174Z,108.27
2023-04-12T05:26:03.933Z,108.07
2023-04-12T05:28:33.508Z,101.83
2023-04-12T05:31:02.156Z,102.43
2023-04-12T05:33:33.393Z,104.57
2023-04-12T05:36:02.152Z,108.77
2023-04-12T05:38:30.578Z,108.17
2023-04-12T05:40:59.034Z,112.37
2023-04-12T05:43:28.791Z,105.07
2023-04-12T05:45:57.395Z,104.10
2023-04-12T05:48:25.915Z,105.53
2023-04-12T05:50:55.070Z,104.07
2023-04-12T05:53:23.991Z,111.57
2023-04-12T05:55:54.360Z,113.30
2023-04-12T05:58:22.910Z,114.43
2023-04-12T06:00:54.601Z,113.77
2023-04-12T06:03:25.343Z,111.87
2023-04-12T06:05:54.364Z,119.00
2023-04-12T06:08:22.918Z,130.17
2023-04-12T06:10:51.367Z,128.03
2023-04-12T06:13:19.678Z,123.77
2023-04-12T06:15:48.033Z,127.27
2023-04-12T06:18:17.890Z,125.33
2023-04-12T06:20:46.450Z,119.10
2023-04-12T06:23:14.884Z,116.70
2023-04-12T06:25:43.327Z,116.50
2023-04-12T06:28:11.880Z,119.83
2023-04-12T06:30:40.320Z,122.50
2023-04-12T06:33:08.998Z,122.80
2023-04-12T06:35:38.885Z,124.43
2023-04-12T06:38:07.448Z,119.97
2023-04-12T06:40:36.241Z,124.13
2023-04-12T06:43:04.680Z,127.67
2023-04-12T06:45:33.249Z,126.33
2023-04-12T06:48:01.773Z,130.20
2023-04-12T06:50:30.371Z,134.83
2023-04-12T06:53:00.118Z,141.23
2023-04-12T06:55:29.343Z,140.27
2023-04-12T06:57:57.964Z,133.10
2023-04-12T07:00:26.656Z,129.73
2023-04-12T07:02:55.359Z,128.80
2023-04-12T07:05:24.291Z,135.97
2023-04-12T07:07:52.697Z,147.17
2023-04-12T07:10:22.707Z,143.70
2023-04-12T07:12:52.097Z,137.53
2023-04-12T07:15:20.773Z,138.57
2023-04-12T07:17:49.305Z,137.03
2023-04-12T07:20:18.040Z,140.73
2023-04-12T07:22:47.415Z,132.53
2023-04-12T07:25:15.988Z,139.10
2023-04-12T07:27:45.975Z,140.10
2023-04-12T07:30:14.900Z,140.00
2023-04-12T07:32:43.424Z,136.20
2023-04-12T07:35:12.024Z,140.47
2023-04-12T07:37:40.458Z,140.00
2023-04-12T07:40:09.748Z,132.13
2023-04-12T07:42:38.306Z,134.27
2023-04-12T07:45:09.268Z,131.17
2023-04-12T07:47:37.849Z,126.43
2023-04-12T07:50:07.609Z,126.60
2023-04-12T07:52:36.162Z,126.93
2023-04-12T07:55:04.979Z,130.93
2023-04-12T07:57:34.185Z,125.40
2023-04-12T08:00:02.789Z,125.67
2023-04-12T08:02:32.887Z,115.70
2023-04-12T08:05:01.376Z,110.50
2023-04-12T08:07:29.916Z,110.13
2023-04-12T08:09:58.363Z,108.00
2023-04-12T08:12:27.281Z,107.93
2023-04-12T08:14:55.718Z,106.57
2023-04-12T08:17:24.342Z,105.00
2023-04-12T08:19:54.170Z,109.87
2023-04-12T08:22:22.597Z,94.17
2023-04-12T08:24:51.072Z,100.87
2023-04-12T08:27:19.601Z,94.43
2023-04-12T08:29:48.052Z,92.73
2023-04-12T08:32:16.754Z,80.47
2023-04-12T08:34:47.446Z,78.03
2023-04-12T08:37:17.211Z,63.40
2023-04-12T08:39:46.005Z,55.93
2023-04-12T08:42:16.132Z,46.80
2023-04-12T08:44:45.526Z,39.37
2023-04-12T08:47:13.976Z,46.67
2023-04-12T08:49:42.404Z,37.77
2023-04-12T08:52:11.690Z,40.03
2023-04-12T08:54:41.569Z,42.77
2023-04-12T08:57:10.732Z,37.30
2023-04-12T08:59:40.738Z,35.00
2023-04-12T09:02:09.410Z,32.77
2023-04-12T09:04:49.726Z,27.93
2023-04-12T09:07:18.425Z,26.83
2023-04-12T09:09:49.253Z,27.23
2023-04-12T09:12:20.584Z,27.30
2023-04-12T09:14:49.031Z,27.13
2023-04-12T09:17:25.204Z,23.57
2023-04-12T09:19:56.081Z,26.20
2023-04-12T09:22:35.486Z,24.20
2023-04-12T09:25:05.699Z,21.97
2023-04-12T09:27:47.604Z,20.63
2023-04-12T09:30:18.352Z,20.57
2023-04-12T09:32:49.339Z,19.77
2023-04-12T09:35:17.999Z,19.57
2023-04-12T09:37:46.517Z,19.60
2023-04-12T09:40:17.056Z,19.37
2023-04-12T09:42:53.703Z,20.00
2023-04-12T09:45:24.405Z,20.80
2023-04-12T09:47:54.041Z,22.80
2023-04-12T09:50:23.856Z,22.00
2023-04-12T09:52:53.868Z,21.70
2023-04-12T09:55:25.344Z,22.20
2023-04-12T09:57:55.390Z,21.47
2023-04-12T10:00:29.363Z,21.20
2023-04-12T10:02:59.978Z,20.70
2023-04-12T10:05:29.295Z,20.20
2023-04-12T10:07:58.603Z,20.93
2023-04-12T10:10:28.561Z,21.33
2023-04-12T10:12:57.192Z,21.17
2023-04-12T10:15:26.243Z,21.33
2023-04-12T10:17:57.773Z,20.50
2023-04-12T10:20:29.865Z,20.90
2023-04-12T10:22:59.835Z,20.57
2023-04-12T10:25:31.901Z,20.60
2023-04-12T10:28:16.053Z,20.23
2023-04-12T10:30:44.721Z,26.50
2023-04-12T10:33:17.008Z,21.93
2023-04-12T10:35:57.655Z,20.57
2023-04-12T10:38:33.628Z,20.10
2023-04-12T10:41:17.608Z,20.57
2023-04-12T10:43:46.697Z,19.80
2023-04-12T10:46:50.485Z,19.50
2023-04-12T10:49:19.230Z,19.17
2023-04-12T10:52:16.067Z,19.13
2023-04-12T10:54:44.520Z,19.23
2023-04-12T10:57:49.712Z,19.57
2023-04-12T11:00:18.805Z,20.13
2023-04-12T11:03:10.222Z,19.73
2023-04-12T11:06:09.242Z,19.20
2023-04-12T11:08:42.207Z,18.77
2023-04-12T11:11:21.456Z,19.20
2023-04-12T11:13:57.037Z,19.97
2023-04-12T11:16:26.806Z,19.30
2023-04-12T11:18:55.678Z,19.20
2023-04-12T11:21:25.658Z,19.70
2023-04-12T11:23:56.607Z,19.90
2023-04-12T11:26:25.689Z,19.70
2023-04-12T11:28:56.361Z,20.30
2023-04-12T11:31:24.919Z,19.50
2023-04-12T11:33:53.258Z,19.40
2023-04-12T11:36:21.700Z,19.17
2023-04-12T11:38:50.395Z,19.90
2023-04-12T11:41:18.840Z,19.70
2023-04-12T11:43:49.303Z,19.43
2023-04-12T11:46:20.206Z,19.50
2023-04-12T11:48:48.623Z,19.53
2023-04-12T11:51:25.410Z,19.07
2023-04-12T11:53:59.294Z,19.13
2023-04-12T11:56:29.637Z,19.57
2023-04-12T11:58:57.954Z,19.30
2023-04-12T12:01:29.388Z,18.73
2023-04-12T12:03:58.437Z,19.70
2023-04-12T12:06:28.601Z,19.80
2023-04-12T12:08:57.478Z,19.77
2023-04-12T12:11:26.789Z,20.10
2023-04-12T12:13:57.567Z,20.23
2023-04-12T12:16:29.227Z,19.60
2023-04-12T12:18:58.568Z,19.50
2023-04-12T12:21:27.870Z,19.83
2023-04-12T12:23:58.841Z,21.37
2023-04-12T12:26:29.278Z,26.77
2023-04-12T12:29:00.357Z,19.30
2023-04-12T12:31:31.385Z,19.37
2023-04-12T12:34:04.347Z,19.40
2023-04-12T12:36:36.351Z,19.07
2023-04-12T12:39:08.043Z,19.10
2023-04-12T12:41:36.861Z,19.30
2023-04-12T12:44:05.414Z,19.00
2023-04-12T12:49:06.486Z,19.03
2023-04-12T12:51:35.057Z,19.53
2023-04-12T12:54:03.743Z,19.27
2023-04-12T12:56:32.653Z,19.30
2023-04-12T12:59:01.101Z,18.93
2023-04-12T13:01:29.701Z,19.40
2023-04-12T13:03:59.584Z,19.87
2023-04-12T13:06:28.449Z,19.10
2023-04-12T13:08:57.170Z,19.40
2023-04-12T13:11:25.817Z,19.40
2023-04-12T13:13:54.140Z,19.00
2023-04-12T13:16:25.343Z,19.27
2023-04-12T13:18:56.403Z,19.30
2023-04-12T13:21:27.544Z,19.57
2023-04-12T13:23:56.325Z,19.10
2023-04-12T13:26:26.149Z,20.00
2023-04-12T13:28:54.521Z,19.37
2023-04-12T13:31:23.268Z,19.27
2023-04-12T13:33:51.983Z,19.27
2023-04-12T13:36:20.424Z,19.57
2023-04-12T13:38:50.668Z,19.63
2023-04-12T13:41:19.299Z,19.13
2023-04-12T13:43:48.049Z,18.60
2023-04-12T13:46:16.507Z,18.97
2023-04-12T13:48:45.386Z,18.90
2023-04-12T13:51:13.830Z,19.23
2023-04-12T13:53:42.562Z,19.30
2023-04-12T13:56:13.136Z,19.10
2023-04-12T13:58:41.795Z,19.40
2023-04-12T14:01:11.037Z,19.00
2023-04-12T14:03:39.888Z,19.27
2023-04-12T14:06:09.667Z,19.47
2023-04-12T14:08:38.234Z,18.90
2023-04-12T14:11:07.568Z,18.83
2023-04-12T14:13:37.624Z,18.67
2023-04-12T14:16:07.240Z,18.93
2023-04-12T14:18:35.800Z,18.70
2023-04-12T14:21:04.602Z,18.63
2023-04-12T14:23:33.888Z,18.70
2023-04-12T14:26:02.450Z,19.00
2023-04-12T14:28:31.839Z,19.13
2023-04-12T14:31:04.286Z,18.77
2023-04-12T14:33:34.242Z,18.20
2023-04-12T14:36:05.071Z,19.17
2023-04-12T14:38:33.573Z,19.83
2023-04-12T14:41:02.204Z,19.70
2023-04-12T14:43:30.775Z,19.77
2023-04-12T14:45:59.225Z,19.20
2023-04-12T14:48:28.988Z,20.07
2023-04-12T14:50:57.527Z,19.60
2023-04-12T14:53:26.039Z,19.40
2023-04-12T14:55:54.534Z,18.90
2023-04-12T14:58:22.972Z,19.03
2023-04-12T15:00:51.418Z,19.30
2023-04-12T15:03:21.153Z,19.17
2023-04-12T15:05:51.052Z,19.07
2023-04-12T15:08:20.511Z,18.77
2023-04-12T15:10:48.895Z,19.40
2023-04-12T15:13:17.437Z,19.50
2023-04-12T15:15:47.451Z,19.27
2023-04-12T15:18:16.740Z,18.90
2023-04-12T15:20:45.177Z,18.73
2023-04-12T15:23:16.018Z,19.40
2023-04-12T15:25:44.340Z,19.73
2023-04-12T15:28:12.667Z,19.80
2023-04-12T15:30:41.016Z,19.90
2023-04-12T15:33:10.549Z,20.00
2023-04-12T15:35:38.909Z,20.07
2023-04-12T15:38:07.267Z,20.43
2023-04-12T15:40:37.151Z,20.03
2023-04-12T15:43:05.714Z,19.67
2023-04-12T15:45:34.402Z,19.33
2023-04-12T15:48:02.855Z,19.80
2023-04-12T15:50:31.177Z,19.03
2023-04-12T15:52:59.736Z,19.30
2023-04-12T15:55:28.162Z,18.63
2023-04-12T15:57:58.277Z,18.73
2023-04-12T16:00:27.801Z,19.17
2023-04-12T16:02:57.394Z,19.40
2023-04-12T16:05:27.679Z,19.37
2023-04-12T16:07:56.848Z,19.57
2023-04-12T16:10:25.397Z,19.67
2023-04-12T16:12:54.922Z,18.13
2023-04-12T16:15:30.438Z,18.10
2023-04-12T16:17:59.345Z,18.23
2023-04-12T16:20:27.702Z,18.10
2023-04-12T16:22:56.268Z,18.77
2023-04-12T16:25:25.763Z,18.73
2023-04-12T16:27:54.471Z,18.97
2023-04-12T16:30:23.808Z,18.57
2023-04-12T16:32:53.794Z,18.60
2023-04-12T16:35:25.187Z,18.53
2023-04-12T16:37:53.729Z,18.70
2023-04-12T16:40:22.468Z,19.20
2023-04-12T16:42:50.850Z,19.10
2023-04-12T16:45:19.848Z,18.70
2023-04-12T16:47:48.713Z,18.90
2023-04-12T16:50:18.696Z,18.37
2023-04-12T16:52:47.013Z,18.40
2023-04-12T16:55:16.061Z,18.23
2023-04-12T16:57:46.061Z,21.40
2023-04-12T17:00:20.640Z,18.70
2023-04-12T17:02:50.879Z,19.40
2023-04-12T17:05:21.708Z,19.20
2023-04-12T17:07:51.937Z,19.60
2023-04-12T17:10:22.133Z,19.17
2023-04-12T17:12:52.807Z,19.03
2023-04-12T17:15:28.460Z,19.60
2023-04-12T17:18:03.046Z,19.50
2023-04-12T17:20:33.712Z,18.73
2023-04-12T17:23:03.264Z,20.10
2023-04-12T17:25:32.622Z,19.97
2023-04-12T17:28:01.659Z,20.37
2023-04-12T17:30:30.903Z,20.47
2023-04-12T17:33:01.464Z,22.13
2023-04-12T17:35:30.583Z,20.80
2023-04-12T17:38:00.961Z,20.60
2023-04-12T17:40:29.630Z,21.97
2023-04-12T17:42:58.192Z,20.43
2023-04-12T17:45:26.883Z,21.40
2023-04-12T17:47:55.830Z,23.97
2023-04-12T17:50:24.614Z,21.47
2023-04-12T17:52:53.155Z,22.30
2023-04-12T17:55:25.915Z,22.60
2023-04-12T17:58:14.284Z,22.37
2023-04-12T18:00:43.563Z,23.03
2023-04-12T18:03:13.509Z,24.37
2023-04-12T18:05:42.133Z,23.83
2023-04-12T18:08:11.171Z,24.13
2023-04-12T18:10:42.253Z,24.30
2023-04-12T18:13:11.169Z,24.80
2023-04-12T18:15:39.751Z,24.63
2023-04-12T18:18:08.323Z,25.27
2023-04-12T18:20:37.202Z,27.83
2023-04-12T18:23:05.539Z,27.03
2023-04-12T18:25:35.368Z,27.67
2023-04-12T18:28:05.660Z,27.97
2023-04-12T18:30:34.204Z,29.80
2023-04-12T18:33:03.980Z,29.17
2023-04-12T18:35:32.893Z,31.07
2023-04-12T18:38:01.450Z,32.87
2023-04-12T18:40:29.912Z,31.93
2023-04-12T18:42:59.562Z,33.70
2023-04-12T18:45:29.662Z,33.07
2023-04-12T18:48:00.427Z,33.57
2023-04-12T18:50:29.443Z,35.00
2023-04-12T18:52:57.856Z,39.50
2023-04-12T18:55:26.446Z,41.67
2023-04-12T18:57:55.107Z,42.10
2023-04-12T19:00:24.019Z,43.60
2023-04-12T19:02:54.220Z,43.57
2023-04-12T19:05:22.839Z,46.23
2023-04-12T19:07:52.229Z,46.60
2023-04-12T19:10:24.394Z,48.13
2023-04-12T19:12:52.701Z,54.20
2023-04-12T19:15:21.154Z,49.90
2023-04-12T19:17:49.962Z,47.80
2023-04-12T19:20:21.858Z,51.23
2023-04-12T19:22:50.176Z,51.57
2023-04-12T19:25:19.806Z,50.60
2023-04-12T19:27:48.499Z,48.40
2023-04-12T19:30:17.322Z,50.67
2023-04-12T19:32:45.782Z,52.37
2023-04-12T19:35:14.545Z,49.47
2023-04-12T19:37:44.788Z,53.20
2023-04-12T19:40:13.944Z,51.67
2023-04-12T19:42:42.868Z,51.33
2023-04-12T19:45:11.445Z,52.47
2023-04-12T19:47:44.927Z,52.17
2023-04-12T19:50:15.152Z,50.47
2023-04-12T19:52:45.769Z,48.27
2023-04-12T19:55:16.046Z,47.87
2023-04-12T19:57:45.164Z,48.10
2023-04-12T20:00:19.693Z,46.87
2023-04-12T20:02:48.833Z,46.93
2023-04-12T20:05:17.436Z,47.07
2023-04-12T20:07:47.337Z,44.53
2023-04-12T20:10:15.766Z,38.50
2023-04-12T20:12:44.442Z,37.40
2023-04-12T20:15:13.356Z,34.57
2023-04-12T20:17:43.084Z,33.07
2023-04-12T20:20:12.900Z,33.73
2023-04-12T20:22:42.290Z,32.23
2023-04-12T20:25:12.884Z,30.97
2023-04-12T20:27:42.645Z,29.70
2023-04-12T20:30:16.985Z,26.53
2023-04-12T20:32:45.784Z,25.30
2023-04-12T20:35:15.527Z,24.70
2023-04-12T20:37:43.973Z,23.47
2023-04-12T20:40:14.567Z,23.60
2023-04-12T20:42:45.046Z,23.20
2023-04-12T20:45:14.467Z,45.67
2023-04-12T20:47:42.939Z,22.10
2023-04-12T20:50:12.566Z,23.23
2023-04-12T20:52:41.226Z,22.07
2023-04-12T20:55:10.730Z,21.57
2023-04-12T20:57:40.619Z,21.23
2023-04-12T21:00:17.356Z,21.70
2023-04-12T21:02:46.952Z,21.13
2023-04-12T21:05:16.964Z,21.37
2023-04-12T21:07:46.947Z,21.10
2023-04-12T21:10:16.411Z,21.30
2023-04-12T21:12:47.214Z,20.77
2023-04-12T21:15:18.079Z,21.20
2023-04-12T21:17:46.797Z,20.93
2023-04-12T21:20:16.259Z,21.40
2023-04-12T21:22:48.011Z,20.80
2023-04-12T21:25:17.221Z,20.73
2023-04-12T21:27:47.844Z,20.53
2023-04-12T21:30:16.506Z,21.30
2023-04-12T21:32:45.026Z,20.83
2023-04-12T21:35:16.508Z,20.83
2023-04-12T21:37:45.069Z,21.00
2023-04-12T21:40:13.703Z,20.80
2023-04-12T21:42:44.359Z,20.90
2023-04-12T21:45:14.833Z,21.23
2023-04-12T21:47:43.705Z,21.00
2023-04-12T21:50:12.810Z,21.50
2023-04-12T21:52:41.732Z,21.13
2023-04-12T21:55:10.516Z,20.97
2023-04-12T21:57:38.981Z,20.50
2023-04-12T22:00:10.141Z,20.13
2023-04-12T22:02:40.487Z,20.40
2023-04-12T22:05:09.920Z,20.87
2023-04-12T22:07:41.240Z,20.20
2023-04-12T22:10:12.056Z,20.37
2023-04-12T22:12:41.053Z,20.03
2023-04-12T22:15:11.998Z,20.97
2023-04-12T22:17:44.182Z,21.60
2023-04-12T22:20:13.387Z,21.97
2023-04-12T22:22:42.920Z,21.87
2023-04-12T22:25:15.394Z,22.40
2023-04-12T22:27:46.338Z,21.37
2023-04-12T22:30:16.014Z,21.83
2023-04-12T22:32:46.012Z,23.00
2023-04-12T22:35:14.487Z,23.00
2023-04-12T22:37:43.357Z,23.80
2023-04-12T22:40:13.892Z,26.70
2023-04-12T22:42:46.724Z,28.80
2023-04-12T22:45:16.289Z,31.83
2023-04-12T22:47:46.379Z,37.60
2023-04-12T22:50:15.268Z,38.57
2023-04-12T22:52:43.777Z,40.50
2023-04-12T22:55:14.394Z,43.63
2023-04-12T22:57:42.953Z,46.10
2023-04-12T23:00:16.439Z,48.47
2023-04-12T23:02:48.568Z,46.50
2023-04-12T23:05:17.671Z,48.40
2023-04-12T23:07:46.323Z,44.73
2023-04-12T23:10:14.756Z,50.30
2023-04-12T23:12:43.073Z,44.80
2023-04-12T23:15:12.849Z,48.30
2023-04-12T23:17:41.324Z,52.20
2023-04-12T23:20:13.586Z,54.17
2023-04-12T23:22:57.440Z,52.23
2023-04-12T23:25:38.031Z,48.17
2023-04-12T23:28:09.826Z,46.67
2023-04-12T23:30:38.287Z,47.97
2023-04-12T23:33:09.127Z,49.07
2023-04-12T23:35:39.484Z,51.90
2023-04-12T23:38:09.598Z,48.63
2023-04-12T23:40:38.430Z,49.53
2023-04-12T23:43:08.635Z,48.80
2023-04-12T23:45:38.164Z,48.77
2023-04-12T23:48:07.168Z,51.10
2023-04-12T23:50:35.772Z,52.50
2023-04-12T23:53:06.125Z,51.13
2023-04-12T23:55:34.555Z,51.00
2023-04-12T23:58:03.000Z,52.30
